createdAt,value
2022-12-09T00:01:10.866Z,2.60
2022-12-09T00:03:39.634Z,2.60
2022-12-09T00:06:14.555Z,2.60
2022-12-09T00:08:41.791Z,2.70
2022-12-09T00:11:09.272Z,2.70
2022-12-09T00:13:36.966Z,2.60
2022-12-09T00:16:14.789Z,2.60
2022-12-09T00:18:42.828Z,2.60
2022-12-09T00:21:18.983Z,2.70
2022-12-09T00:23:46.435Z,2.70
2022-12-09T00:26:14.441Z,2.70
2022-12-09T00:28:41.612Z,2.70
2022-12-09T00:31:12.797Z,2.70
2022-12-09T00:33:39.931Z,2.70
2022-12-09T00:36:12.277Z,2.70
2022-12-09T00:38:39.653Z,2.70
2022-12-09T00:41:06.996Z,2.70
2022-12-09T00:43:34.478Z,2.70
2022-12-09T00:46:02.083Z,2.70
2022-12-09T00:48:29.457Z,2.60
2022-12-09T00:50:56.997Z,2.70
2022-12-09T00:53:24.018Z,2.60
2022-12-09T00:55:51.200Z,2.70
2022-12-09T00:58:18.280Z,2.70
2022-12-09T01:00:46.135Z,2.70
2022-12-09T01:03:17.709Z,2.60
2022-12-09T01:05:44.986Z,2.50
2022-12-09T01:08:12.529Z,2.50
2022-12-09T01:10:41.469Z,2.50
2022-12-09T01:13:09.037Z,2.60
2022-12-09T01:15:37.475Z,2.50
2022-12-09T01:18:05.099Z,2.60
2022-12-09T01:20:35.477Z,2.60
2022-12-09T01:23:03.935Z,2.60
2022-12-09T01:25:31.181Z,2.60
2022-12-09T01:27:58.607Z,2.60
2022-12-09T01:30:25.907Z,2.50
2022-12-09T01:32:53.230Z,2.50
2022-12-09T01:35:20.676Z,2.60
2022-12-09T01:37:47.957Z,2.50
2022-12-09T01:40:17.714Z,2.60
2022-12-09T01:42:45.044Z,2.60
2022-12-09T01:45:22.117Z,2.60
2022-12-09T01:47:57.075Z,2.60
2022-12-09T01:50:27.347Z,2.60
2022-12-09T01:52:55.580Z,2.50
2022-12-09T01:55:24.591Z,2.50
2022-12-09T01:57:53.123Z,2.50
2022-12-09T02:00:21.506Z,2.50
2022-12-09T02:02:51.525Z,2.50
2022-12-09T02:05:21.268Z,2.40
2022-12-09T02:07:54.385Z,2.40
2022-12-09T02:10:22.104Z,2.40
2022-12-09T02:13:14.332Z,2.40
2022-12-09T02:15:49.669Z,2.50
2022-12-09T02:18:38.648Z,2.50
2022-12-09T02:21:12.597Z,2.50
2022-12-09T02:23:59.372Z,2.50
2022-12-09T02:26:40.277Z,2.50
2022-12-09T02:29:08.555Z,2.50
2022-12-09T02:31:56.221Z,2.60
2022-12-09T02:34:28.843Z,2.50
2022-12-09T02:37:13.916Z,2.50
2022-12-09T02:39:53.558Z,2.50
2022-12-09T02:42:26.208Z,2.50
2022-12-09T02:44:53.938Z,2.50
2022-12-09T02:47:26.686Z,2.50
2022-12-09T02:50:02.930Z,2.60
2022-12-09T02:52:32.709Z,2.50
2022-12-09T02:55:04.225Z,2.50
2022-12-09T02:57:34.433Z,2.50
2022-12-09T03:00:01.731Z,2.50
2022-12-09T03:02:33.629Z,2.60
2022-12-09T03:05:27.265Z,2.60
2022-12-09T03:08:21.774Z,2.50
2022-12-09T03:11:07.625Z,2.50
2022-12-09T03:13:39.949Z,2.60
2022-12-09T03:16:39.252Z,2.50
2022-12-09T03:19:29.733Z,2.60
2022-12-09T03:21:59.247Z,2.60
2022-12-09T03:24:34.759Z,2.50
2022-12-09T03:27:09.168Z,2.50
2022-12-09T03:29:41.577Z,2.50
2022-12-09T03:32:11.820Z,2.50
2022-12-09T03:34:44.892Z,2.50
2022-12-09T03:37:15.085Z,2.50
2022-12-09T03:39:43.307Z,2.50
2022-12-09T03:42:19.073Z,2.50
2022-12-09T03:44:56.758Z,2.60
2022-12-09T03:47:24.443Z,2.60
2022-12-09T03:49:51.455Z,2.60
2022-12-09T03:52:36.005Z,2.60
2022-12-09T03:55:13.946Z,2.60
2022-12-09T03:57:45.195Z,2.60
2022-12-09T04:00:13.313Z,2.60
2022-12-09T04:02:40.790Z,2.70
2022-12-09T04:05:09.421Z,2.60
2022-12-09T04:07:36.504Z,2.50
2022-12-09T04:10:05.353Z,2.60
2022-12-09T04:12:32.733Z,2.60
2022-12-09T04:14:59.944Z,2.60
2022-12-09T04:17:27.213Z,2.60
2022-12-09T04:19:54.381Z,2.60
2022-12-09T04:22:21.350Z,2.60
2022-12-09T04:24:48.608Z,2.60
2022-12-09T04:27:15.878Z,2.60
2022-12-09T04:29:42.958Z,2.60
2022-12-09T04:32:10.293Z,2.60
2022-12-09T04:34:37.705Z,2.60
2022-12-09T04:37:05.154Z,2.60
2022-12-09T04:39:32.193Z,2.50
2022-12-09T04:41:59.296Z,2.60
2022-12-09T04:44:26.751Z,2.60
2022-12-09T04:46:54.174Z,2.50
2022-12-09T04:49:21.371Z,2.50
2022-12-09T04:51:48.496Z,2.50
2022-12-09T04:54:16.025Z,2.40
2022-12-09T04:56:43.725Z,2.40
2022-12-09T04:59:12.342Z,2.40
2022-12-09T05:01:39.357Z,2.30
2022-12-09T05:04:08.222Z,2.40
2022-12-09T05:06:36.745Z,2.40
2022-12-09T05:09:04.476Z,2.40
2022-12-09T05:11:32.089Z,2.30
2022-12-09T05:13:59.751Z,2.30
2022-12-09T05:16:27.174Z,2.20
2022-12-09T05:18:54.709Z,2.20
2022-12-09T05:21:22.435Z,2.20
2022-12-09T05:23:49.819Z,2.10
2022-12-09T05:26:20.134Z,2.10
2022-12-09T05:28:48.153Z,2.00
2022-12-09T05:31:18.136Z,2.10
2022-12-09T05:33:46.818Z,2.10
2022-12-09T05:36:16.327Z,2.10
2022-12-09T05:38:43.772Z,2.10
2022-12-09T05:41:11.292Z,2.10
2022-12-09T05:43:39.668Z,2.10
2022-12-09T05:46:07.656Z,2.10
2022-12-09T05:48:35.472Z,2.10
2022-12-09T05:51:06.627Z,2.10
2022-12-09T05:53:34.555Z,2.10
2022-12-09T05:56:02.097Z,2.10
2022-12-09T05:58:29.610Z,2.10
2022-12-09T06:00:58.053Z,2.10
2022-12-09T06:03:25.417Z,2.10
2022-12-09T06:05:52.700Z,2.00
2022-12-09T06:08:20.577Z,2.10
2022-12-09T06:10:48.104Z,2.10
2022-12-09T06:13:15.331Z,2.00
2022-12-09T06:15:42.558Z,2.10
2022-12-09T06:18:09.812Z,2.10
2022-12-09T06:20:41.132Z,2.10
2022-12-09T06:23:08.631Z,2.00
2022-12-09T06:25:36.245Z,2.10
2022-12-09T06:28:04.211Z,2.10
2022-12-09T06:30:31.815Z,2.00
2022-12-09T06:32:59.190Z,2.00
2022-12-09T06:35:26.262Z,2.10
2022-12-09T06:37:53.705Z,2.00
2022-12-09T06:40:24.861Z,2.10
2022-12-09T06:42:52.530Z,2.00
2022-12-09T06:45:20.593Z,2.00
2022-12-09T06:47:48.460Z,2.00
2022-12-09T06:50:16.230Z,1.90
2022-12-09T06:52:43.575Z,1.90
2022-12-09T06:55:11.545Z,1.90
2022-12-09T06:57:38.905Z,1.80
2022-12-09T07:00:06.685Z,1.80
2022-12-09T07:02:36.697Z,1.90
2022-12-09T07:05:05.536Z,1.90
2022-12-09T07:07:33.836Z,1.80
2022-12-09T07:10:06.574Z,1.80
2022-12-09T07:12:34.068Z,1.80
2022-12-09T07:15:01.352Z,1.70
2022-12-09T07:17:28.847Z,1.70
2022-12-09T07:20:00.145Z,1.70
2022-12-09T07:22:32.473Z,1.60
2022-12-09T07:24:59.700Z,1.50
2022-12-09T07:27:26.840Z,1.60
2022-12-09T07:29:54.126Z,1.50
2022-12-09T07:32:21.585Z,1.60
2022-12-09T07:34:48.874Z,1.50
2022-12-09T07:37:16.474Z,1.50
2022-12-09T07:39:43.691Z,1.40
2022-12-09T07:42:10.713Z,1.30
2022-12-09T07:44:49.740Z,1.30
2022-12-09T07:47:17.184Z,1.30
2022-12-09T07:49:44.629Z,1.30
2022-12-09T07:52:12.670Z,1.30
2022-12-09T07:54:39.895Z,1.30
2022-12-09T07:57:07.370Z,1.30
2022-12-09T07:59:34.424Z,1.30
2022-12-09T08:02:06.586Z,1.30
2022-12-09T08:04:36.387Z,1.30
2022-12-09T08:07:03.803Z,1.30
2022-12-09T08:09:31.220Z,1.20
2022-12-09T08:11:58.554Z,1.20
2022-12-09T08:14:25.840Z,1.10
2022-12-09T08:16:53.190Z,1.20
2022-12-09T08:19:20.983Z,1.10
2022-12-09T08:21:54.205Z,1.00
2022-12-09T08:24:22.002Z,1.00
2022-12-09T08:26:51.377Z,0.80
2022-12-09T08:29:20.783Z,0.70
2022-12-09T08:31:48.235Z,0.80
2022-12-09T08:34:16.042Z,0.80
2022-12-09T08:36:43.700Z,0.80
2022-12-09T08:39:13.310Z,0.80
2022-12-09T08:41:41.192Z,0.80
2022-12-09T08:44:08.841Z,0.80
2022-12-09T08:46:40.226Z,0.80
2022-12-09T08:49:08.333Z,0.90
2022-12-09T08:51:38.301Z,0.90
2022-12-09T08:54:06.783Z,0.90
2022-12-09T08:56:34.426Z,0.80
2022-12-09T08:59:02.087Z,0.80
2022-12-09T09:01:36.137Z,0.80
2022-12-09T09:04:10.088Z,0.90
2022-12-09T09:06:41.499Z,0.80
2022-12-09T09:09:10.856Z,0.70
2022-12-09T09:11:39.422Z,0.70
2022-12-09T09:14:08.500Z,0.80
2022-12-09T09:16:43.126Z,0.90
2022-12-09T09:19:16.587Z,0.90
2022-12-09T09:21:45.739Z,1.10
2022-12-09T09:24:16.249Z,1.20
2022-12-09T09:26:46.313Z,1.30
2022-12-09T09:29:16.096Z,1.30
2022-12-09T09:31:44.111Z,1.40
2022-12-09T09:34:12.190Z,1.40
2022-12-09T09:36:40.394Z,1.40
2022-12-09T09:39:07.715Z,1.40
2022-12-09T09:42:17.850Z,1.50
2022-12-09T09:44:49.378Z,1.60
2022-12-09T09:47:26.177Z,1.50
2022-12-09T09:50:09.872Z,1.50
2022-12-09T09:52:42.708Z,1.60
2022-12-09T09:55:18.366Z,1.70
2022-12-09T09:57:59.591Z,1.50
2022-12-09T10:00:44.407Z,1.60
2022-12-09T10:03:28.255Z,1.60
2022-12-09T10:05:58.927Z,1.60
2022-12-09T10:08:49.656Z,1.70
2022-12-09T10:11:56.326Z,1.70
2022-12-09T10:14:41.894Z,1.70
2022-12-09T10:17:28.111Z,1.70
2022-12-09T10:20:12.802Z,1.70
2022-12-09T10:22:50.597Z,1.80
2022-12-09T10:25:23.066Z,1.80
2022-12-09T10:28:00.362Z,1.80
2022-12-09T10:30:35.347Z,1.80
2022-12-09T10:33:04.810Z,1.80
2022-12-09T10:35:34.698Z,1.80
2022-12-09T10:38:11.135Z,1.90
2022-12-09T10:40:47.435Z,1.90
2022-12-09T10:43:41.302Z,1.90
2022-12-09T10:46:18.500Z,2.00
2022-12-09T10:48:46.692Z,2.00
2022-12-09T10:51:30.508Z,2.00
2022-12-09T10:54:04.429Z,1.90
2022-12-09T10:56:37.463Z,2.00
2022-12-09T10:59:22.689Z,2.00
2022-12-09T11:01:55.855Z,2.10
2022-12-09T11:04:44.369Z,2.10
2022-12-09T11:07:21.932Z,2.00
2022-12-09T11:10:02.993Z,2.00
2022-12-09T11:12:40.576Z,2.00
2022-12-09T11:15:29.696Z,2.00
2022-12-09T11:18:07.900Z,1.90
2022-12-09T11:20:36.502Z,2.00
2022-12-09T11:23:17.129Z,2.10
2022-12-09T11:26:02.548Z,2.00
2022-12-09T11:28:35.976Z,2.10
2022-12-09T11:31:33.712Z,2.10
2022-12-09T11:34:05.454Z,2.10
2022-12-09T11:36:44.089Z,2.20
2022-12-09T11:39:26.052Z,2.20
2022-12-09T11:42:19.059Z,2.30
2022-12-09T11:44:57.462Z,2.30
2022-12-09T11:47:57.264Z,2.40
2022-12-09T11:50:23.994Z,2.30
2022-12-09T11:53:11.964Z,2.40
2022-12-09T11:55:52.230Z,2.40
2022-12-09T11:58:38.918Z,2.40
2022-12-09T12:01:14.330Z,2.40
2022-12-09T12:03:52.093Z,2.40
2022-12-09T12:06:49.783Z,2.50
2022-12-09T12:09:44.283Z,2.50
2022-12-09T12:12:17.697Z,2.60
2022-12-09T12:14:45.318Z,2.60
2022-12-09T12:17:30.050Z,2.60
2022-12-09T12:19:57.595Z,2.70
2022-12-09T12:22:54.441Z,2.70
2022-12-09T12:25:39.876Z,2.80
2022-12-09T12:28:12.803Z,2.70
2022-12-09T12:30:57.696Z,2.60
2022-12-09T12:36:53.242Z,2.60
2022-12-09T12:39:28.867Z,2.70
2022-12-09T12:42:26.012Z,2.60
2022-12-09T12:45:33.361Z,2.60
2022-12-09T12:48:12.618Z,2.60
2022-12-09T12:51:18.599Z,2.70
2022-12-09T12:53:55.619Z,2.60
2022-12-09T12:57:11.233Z,2.70
2022-12-09T13:00:08.227Z,2.60
2022-12-09T13:02:47.945Z,2.60
2022-12-09T13:05:23.847Z,2.60
2022-12-09T13:08:04.082Z,2.60
2022-12-09T13:10:32.493Z,2.60
2022-12-09T13:13:02.101Z,2.60
2022-12-09T13:15:37.854Z,2.50
2022-12-09T13:18:32.581Z,2.50
2022-12-09T13:21:02.157Z,2.60
2022-12-09T13:23:54.089Z,2.60
2022-12-09T13:26:43.355Z,2.60
2022-12-09T13:29:23.503Z,2.60
2022-12-09T13:32:07.220Z,2.60
2022-12-09T13:34:44.702Z,2.60
2022-12-09T13:37:55.438Z,2.60
2022-12-09T13:40:39.626Z,2.60
2022-12-09T13:43:26.117Z,2.60
2022-12-09T13:45:58.981Z,2.60
2022-12-09T13:48:45.908Z,2.60
2022-12-09T13:51:20.996Z,2.70
2022-12-09T13:54:11.749Z,2.70
2022-12-09T13:56:39.964Z,2.60
2022-12-09T13:59:58.316Z,2.60
2022-12-09T14:02:42.007Z,2.60
2022-12-09T14:05:36.448Z,2.60
2022-12-09T14:08:27.096Z,2.60
2022-12-09T14:10:54.735Z,2.60
2022-12-09T14:13:35.300Z,2.60
2022-12-09T14:16:28.916Z,2.60
2022-12-09T14:18:57.284Z,2.60
2022-12-09T14:21:28.711Z,2.60
2022-12-09T14:24:18.421Z,2.50
2022-12-09T14:27:07.948Z,2.50
2022-12-09T14:29:54.716Z,2.50
2022-12-09T14:32:54.583Z,2.50
2022-12-09T14:35:43.558Z,2.50
2022-12-09T14:38:17.636Z,2.50
2022-12-09T14:41:12.580Z,2.50
2022-12-09T14:43:55.320Z,2.50
2022-12-09T14:46:34.973Z,2.40
2022-12-09T14:49:27.174Z,2.40
2022-12-09T14:52:11.246Z,2.30
2022-12-09T14:54:45.917Z,2.40
2022-12-09T14:57:38.209Z,2.30
2022-12-09T15:00:07.517Z,2.20
2022-12-09T15:02:35.543Z,2.20
2022-12-09T15:05:03.429Z,2.20
2022-12-09T15:07:32.712Z,2.20
2022-12-09T15:10:02.484Z,2.20
2022-12-09T15:12:33.066Z,2.20
2022-12-09T15:15:15.398Z,2.20
2022-12-09T15:17:44.164Z,2.10
2022-12-09T15:20:24.368Z,2.10
2022-12-09T15:22:55.907Z,2.10
2022-12-09T15:25:26.463Z,2.00
2022-12-09T15:28:04.773Z,2.00
2022-12-09T15:30:37.275Z,2.00
2022-12-09T15:33:12.672Z,1.90
2022-12-09T15:35:39.742Z,1.80
2022-12-09T15:38:08.701Z,1.80
2022-12-09T15:40:39.678Z,1.70
2022-12-09T15:43:10.890Z,1.70
2022-12-09T15:45:42.310Z,1.70
2022-12-09T15:48:16.255Z,1.80
2022-12-09T15:50:54.459Z,1.80
2022-12-09T15:53:31.601Z,1.70
2022-12-09T15:56:24.579Z,1.70
2022-12-09T15:58:57.297Z,1.60
2022-12-09T16:01:28.570Z,1.60
2022-12-09T16:03:58.062Z,1.50
2022-12-09T16:06:31.195Z,1.50
2022-12-09T16:08:59.346Z,1.50
2022-12-09T16:11:43.672Z,1.50
2022-12-09T16:14:12.081Z,1.40
2022-12-09T16:17:10.642Z,1.40
2022-12-09T16:19:38.282Z,1.40
2022-12-09T16:22:11.556Z,1.30
2022-12-09T16:25:16.611Z,1.40
2022-12-09T16:27:37.414Z,1.30
2022-12-09T16:30:21.523Z,1.20
2022-12-09T16:32:55.376Z,1.20
2022-12-09T16:35:42.944Z,1.20
2022-12-09T16:38:09.921Z,1.30
2022-12-09T16:40:46.117Z,1.20
2022-12-09T16:43:16.061Z,1.20
2022-12-09T16:45:44.029Z,1.30
2022-12-09T16:48:12.477Z,1.20
2022-12-09T16:50:59.241Z,1.30
2022-12-09T16:53:32.628Z,1.30
2022-12-09T16:56:01.634Z,1.20
2022-12-09T16:58:30.977Z,1.20
2022-12-09T17:00:59.282Z,1.10
2022-12-09T17:03:40.672Z,1.10
2022-12-09T17:06:13.558Z,1.10
2022-12-09T17:08:40.538Z,1.00
2022-12-09T17:11:07.440Z,1.00
2022-12-09T17:13:34.593Z,1.00
2022-12-09T17:16:01.864Z,1.00
2022-12-09T17:18:29.910Z,0.90
2022-12-09T17:21:04.593Z,0.90
2022-12-09T17:23:37.675Z,0.90
2022-12-09T17:26:10.240Z,0.90
2022-12-09T17:28:38.588Z,0.90
2022-12-09T17:31:10.479Z,0.90
2022-12-09T17:33:38.332Z,0.80
2022-12-09T17:36:07.386Z,0.70
2022-12-09T17:38:34.808Z,0.70
2022-12-09T17:41:07.315Z,0.70
2022-12-09T17:43:34.897Z,0.70
2022-12-09T17:46:03.353Z,0.60
2022-12-09T17:48:31.292Z,0.60
2022-12-09T17:50:58.418Z,0.60
2022-12-09T17:53:25.380Z,0.60
2022-12-09T17:55:52.292Z,0.60
2022-12-09T17:58:19.221Z,0.60
2022-12-09T18:00:47.912Z,0.60
2022-12-09T18:03:27.352Z,0.60
2022-12-09T18:06:02.065Z,0.60
2022-12-09T18:08:30.197Z,0.60
2022-12-09T18:10:57.321Z,0.50
2022-12-09T18:13:24.168Z,0.50
2022-12-09T18:15:54.190Z,0.40
2022-12-09T18:18:22.575Z,0.40
2022-12-09T18:20:49.851Z,0.40
2022-12-09T18:23:16.845Z,0.40
2022-12-09T18:25:43.727Z,0.40
2022-12-09T18:28:10.765Z,0.40
2022-12-09T18:30:39.504Z,0.40
2022-12-09T18:33:06.621Z,0.30
2022-12-09T18:35:33.981Z,0.30
2022-12-09T18:38:09.621Z,0.30
2022-12-09T18:41:00.482Z,0.30
2022-12-09T18:43:33.420Z,0.30
2022-12-09T18:46:07.113Z,0.30
2022-12-09T18:48:34.559Z,0.20
2022-12-09T18:51:01.701Z,0.30
2022-12-09T18:53:28.820Z,0.20
2022-12-09T18:55:56.026Z,0.20
2022-12-09T18:58:36.814Z,0.20
2022-12-09T19:01:24.018Z,0.20
2022-12-09T19:03:53.362Z,0.10
2022-12-09T19:06:22.122Z,0.10
2022-12-09T19:08:53.902Z,0.10
2022-12-09T19:11:22.741Z,0.10
2022-12-09T19:13:50.354Z,0.10
2022-12-09T19:16:17.468Z,0.10
2022-12-09T19:18:44.847Z,0.10
2022-12-09T19:21:14.022Z,0.00
2022-12-09T19:23:43.083Z,0.10
2022-12-09T19:26:21.984Z,0.10
2022-12-09T19:28:57.825Z,0.10
2022-12-09T19:31:29.559Z,0.10
2022-12-09T19:33:57.131Z,0.10
2022-12-09T19:36:25.623Z,0.10
2022-12-09T19:38:53.276Z,0.10
2022-12-09T19:41:21.025Z,0.00
2022-12-09T19:43:48.663Z,0.00
2022-12-09T19:46:16.742Z,0.10
2022-12-09T19:48:44.608Z,0.00
2022-12-09T19:51:16.194Z,0.00
2022-12-09T19:53:44.068Z,0.00
2022-12-09T19:56:14.246Z,0.00
2022-12-09T19:58:43.909Z,0.00
2022-12-09T20:01:17.802Z,-0.10
2022-12-09T20:03:47.295Z,-0.10
2022-12-09T20:06:16.473Z,-0.10
2022-12-09T20:08:44.437Z,-0.10
2022-12-09T20:11:17.001Z,-0.10
2022-12-09T20:13:44.167Z,0.00
2022-12-09T20:16:14.077Z,-0.10
2022-12-09T20:18:42.958Z,-0.10
2022-12-09T20:21:12.089Z,-0.10
2022-12-09T20:23:41.095Z,-0.20
2022-12-09T20:26:22.849Z,-0.10
2022-12-09T20:28:52.076Z,-0.20
2022-12-09T20:31:21.708Z,-0.20
2022-12-09T20:33:52.022Z,-0.20
2022-12-09T20:36:21.743Z,-0.20
2022-12-09T20:38:54.761Z,-0.20
2022-12-09T20:41:22.370Z,-0.20
2022-12-09T20:43:51.335Z,-0.20
2022-12-09T20:46:28.553Z,-0.20
2022-12-09T20:48:57.674Z,-0.20
2022-12-09T20:51:29.030Z,-0.20
2022-12-09T20:53:57.434Z,-0.20
2022-12-09T20:56:26.037Z,-0.20
2022-12-09T20:58:54.310Z,-0.30
2022-12-09T21:01:32.421Z,-0.20
2022-12-09T21:04:01.211Z,-0.20
2022-12-09T21:06:31.058Z,-0.30
2022-12-09T21:09:10.162Z,-0.20
2022-12-09T21:11:37.819Z,-0.30
2022-12-09T21:14:06.915Z,-0.40
2022-12-09T21:16:38.900Z,-0.30
2022-12-09T21:19:09.987Z,-0.30
2022-12-09T21:21:39.017Z,-0.40
2022-12-09T21:24:07.568Z,-0.40
2022-12-09T21:26:35.351Z,-0.40
2022-12-09T21:29:03.134Z,-0.40
2022-12-09T21:31:33.088Z,-0.40
2022-12-09T21:34:03.481Z,-0.40
2022-12-09T21:36:42.637Z,-0.40
2022-12-09T21:39:13.210Z,-0.40
2022-12-09T21:41:41.807Z,-0.40
2022-12-09T21:44:17.849Z,-0.40
2022-12-09T21:46:46.165Z,-0.40
2022-12-09T21:49:14.763Z,-0.40
2022-12-09T21:51:41.799Z,-0.40
2022-12-09T21:54:08.966Z,-0.40
2022-12-09T21:56:36.845Z,-0.50
2022-12-09T21:59:06.014Z,-0.40
2022-12-09T22:01:38.727Z,-0.40
2022-12-09T22:04:09.039Z,-0.40
2022-12-09T22:06:36.229Z,-0.50
2022-12-09T22:09:06.150Z,-0.50
2022-12-09T22:11:35.605Z,-0.50
2022-12-09T22:14:02.914Z,-0.50
2022-12-09T22:16:33.810Z,-0.50
2022-12-09T22:19:06.011Z,-0.60
2022-12-09T22:21:33.909Z,-0.50
2022-12-09T22:24:06.428Z,-0.50
2022-12-09T22:26:34.046Z,-0.60
2022-12-09T22:29:02.467Z,-0.60
2022-12-09T22:31:34.182Z,-0.50
2022-12-09T22:34:12.147Z,-0.50
2022-12-09T22:36:40.397Z,-0.60
2022-12-09T22:39:12.059Z,-0.60
2022-12-09T22:41:39.007Z,-0.70
2022-12-09T22:44:06.000Z,-0.70
2022-12-09T22:46:34.717Z,-0.70
2022-12-09T22:49:04.799Z,-0.60
2022-12-09T22:51:36.113Z,-0.70
2022-12-09T22:54:06.097Z,-0.70
2022-12-09T22:56:36.327Z,-0.70
2022-12-09T22:59:03.624Z,-0.70
2022-12-09T23:01:36.759Z,-0.80
2022-12-09T23:04:05.351Z,-0.80
2022-12-09T23:06:36.285Z,-0.70
2022-12-09T23:09:04.262Z,-0.70
2022-12-09T23:11:31.731Z,-0.70
2022-12-09T23:14:02.669Z,-0.70
2022-12-09T23:16:29.743Z,-0.70
2022-12-09T23:18:59.156Z,-0.70
2022-12-09T23:21:32.244Z,-0.80
2022-12-09T23:24:02.759Z,-0.80
2022-12-09T23:26:32.810Z,-0.80
2022-12-09T23:29:02.053Z,-0.70
2022-12-09T23:31:33.379Z,-0.70
2022-12-09T23:34:02.248Z,-0.70
2022-12-09T23:36:31.966Z,-0.70
2022-12-09T23:39:00.552Z,-0.70
2022-12-09T23:41:28.303Z,-0.70
2022-12-09T23:43:55.306Z,-0.70
2022-12-09T23:46:25.511Z,-0.60
2022-12-09T23:48:53.771Z,-0.60
2022-12-09T23:51:23.453Z,-0.60
2022-12-09T23:53:52.111Z,-0.60
2022-12-09T23:56:21.827Z,-0.50
2022-12-09T23:58:57.286Z,-0.60
